Pregled rezultata (Staza: Irungattukottai | Sezona: 19 | Utrka: 16 | Grupa: Elite)

Izaberi drugu grupu:  Sezona:  Utrka:

Poz Napredak Gume Nac Ime i prezime Vrijeme utrke Krugova Boks Najbolji krug Prosječna brzina Najbolje vrijeme pita
01. +3 +3 Michelini   Jari Aareskoski3 1h47:13.057 79 4 1:19.348 164.30km/h 9.245s
02. -1 -1 Michelini   Toygun Senler1 + 14.841 79 4 1:19.407 163.92km/h 9.064s
03. +3 +3 Michelini   Vladimir Islentiev2 + 19.401 79 3 1:19.949 163.81km/h 9.461s
04. -2 -2 Michelini   Edvinas Pranculevicius + 19.467 79 4 1:19.748 163.81km/h 10.623s
05. Bez promjene ±0 Michelini   Zdenek Hladik + 24.410 79 3 1:19.872 163.68km/h 12.523s
06. +1 +1 Michelini   João Monteiro + 34.995 79 3 1:19.926 163.41km/h 11.724s
07. +3 +3 Michelini   Marek Marchewka + 39.320 79 3 1:20.041 163.30km/h 12.369s
08. +1 +1 Michelini   Nuno Vicente + 54.101 79 3 1:20.270 162.93km/h 12.446s
09. +2 +2 Michelini   Tomasz Kaminski + 54.363 79 3 1:20.196 162.92km/h 12.945s
10. -2 -2 Michelini   Joan Centellas + 1:19.065 79 3 1:20.658 162.31km/h 12.005s
11. -8 -8 Michelini   Jan Zaluski + 1:33.825 78 4 1:20.071 161.94km/h 14.442s
12. +1 +1 Michelini   Wagner Souza + 1:43.238 78 2 1:21.004 161.71km/h 12.734s
13. +8 +8 Michelini   Laila Britāle + 1:50.181 78 2 1:21.173 161.53km/h 11.161s
14. Bez promjene ±0 Dunnolop   Daniele Ambroggi + 1:53.460 78 3 1:20.741 161.45km/h 13.319s
15. +1 +1 Dunnolop   Leandro Sereno2 + 1:56.018 78 4 1:20.456 161.39km/h 9.627s
16. +9 +9 Dunnolop   Andrius Talandzevicius + 2:36.765 78 3 1:21.250 160.39km/h 12.465s
17. +6 +6 Michelini   Aleksej Sutkin + 2:47.278 77 2 1:21.574 160.14km/h 19.517s
18. +1 +1 Dunnolop   Gabriel Toma + 3:00.098 77 4 1:20.724 159.83km/h 16.426s
19. +10 +10 Badyear   Lee Ifans + 3:22.727 77 2 1:22.232 159.28km/h 19.579s
20. +2 +2 Dunnolop   Oli Jais + 3:26.348 77 3 1:21.588 159.19km/h 12.631s
21. -1 -1 Michelini   Lucas Secundo Abreu + 3:43.892 77 4 1:21.064 158.78km/h 19.820s
22. -7 -7 Michelini   Renato Svaiter + 4:24.088 76 2 1:21.976 157.82km/h 13.019s
23. +1 +1 Michelini   Vitor Novo + 5:01.956 76 2 1:21.847 156.94km/h 20.538s
24. -12 -12 Michelini   Martynas Molneris + 5:12.094 76 3 1:21.678 156.70km/h 12.590s
25. -7 -7 Michelini   Denis Grahov + 5:16.756 76 2 1:23.449 156.59km/h 13.027s
26. +4 +4 Badyear   Michael Monaco + 6:12.950 75 1 1:24.179 155.30km/h 28.405s
27. +4 +4 Pipirelli   Mikko Heikkinen + 6:33.676 75 2 1:24.753 154.83km/h 16.057s
28. +7 +7 Pipirelli   Philipp Hartmann + 6:43.342 74 2 1:24.783 154.61km/h 16.849s
29. -1 -1 Badyear   Toni Söyrinki + 7:13.418 74 2 1:24.381 153.93km/h 15.926s
30. +6 +6 Pipirelli   Martynas Atkočius + 7:44.554 74 2 1:25.211 153.24km/h 18.478s
31. +3 +3 Michelini   Martin Rosina + 7:55.619 74 2 1:24.944 152.99km/h 15.240s
32. -6 -6 Badyear   Michał Smiatacz + 8:00.324 73 2 1:23.908 152.89km/h 15.484s
33. -6 -6 Dunnolop   Kostas Farsalinos + 8:00.912 73 3 1:24.116 152.87km/h 18.607s
34. -1 -1 Pipirelli   Craig Templeman + 9:15.717 72 2 1:25.256 151.24km/h 22.939s
35. -18 -18 Michelini   Rimantas Sagatas + 10:29.363 72 3 1:24.004 149.66km/h 13.641s
Nije klasificiran
36. -4 -4 Dunnolop   Michalis Marolachakis Tehnički problemi 52 1 1:26.206    17.630s
37. Bez promjene ±0 Michelini   Filipe Miguel Tehnički problemi 20 1 1:23.656    23.704s